Time;durP1;ratioP1;P1;durP2;ratioP2;P2;SDS_P1;SDS_P2;PMS_P1;PMS_P2;Temp;Humidity;BMP_temperature;BMP_pressure;BME280_temperature;BME280_humidity;BME280_pressure;Samples;Min_cycle;Max_cycle;Signal;HPM_P1;HPM_P2
2022/03/10 00:00:28;;;;;;;10.80;5.53;;;11.80;46.80;;;;;;6273273;28;20481;-68
2022/03/10 00:03:28;;;;;;;9.07;4.88;;;11.80;46.80;;;;;;6262783;28;20041;-68
2022/03/10 00:06:29;;;;;;;13.88;5.97;;;11.80;46.80;;;;;;6272089;28;20078;-69
2022/03/10 00:09:33;;;;;;;11.10;5.57;;;11.70;46.70;;;;;;6271102;28;20110;-68
2022/03/10 00:12:35;;;;;;;14.18;5.65;;;11.80;46.70;;;;;;6272448;28;20048;-69
2022/03/10 00:15:37;;;;;;;12.27;5.38;;;11.80;46.80;;;;;;6273103;28;20128;-70
2022/03/10 00:18:38;;;;;;;16.63;5.53;;;11.70;46.80;;;;;;6272351;28;20401;-68
2022/03/10 00:21:40;;;;;;;17.50;6.13;;;11.60;46.90;;;;;;6272370;28;20056;-69
2022/03/10 00:24:41;;;;;;;8.73;4.53;;;11.70;46.90;;;;;;6271837;28;20041;-68
2022/03/10 00:27:41;;;;;;;18.38;5.63;;;11.70;46.90;;;;;;6272143;28;20427;-69
2022/03/10 00:30:42;;;;;;;15.90;6.00;;;11.70;46.90;;;;;;6272002;28;20075;-68
2022/03/10 00:33:43;;;;;;;10.40;5.22;;;11.70;47.10;;;;;;6272892;28;20036;-68
2022/03/10 00:36:45;;;;;;;11.32;5.88;;;11.80;47.10;;;;;;6273089;28;20064;-68
2022/03/10 00:39:59;;;;;;;10.10;5.00;;;11.70;47.00;;;;;;6248034;28;20076;-68
2022/03/10 00:43:00;;;;;;;15.30;5.28;;;11.70;47.10;;;;;;6262224;28;20037;-69
2022/03/10 00:46:01;;;;;;;13.95;5.63;;;11.70;47.30;;;;;;6271289;28;20466;-67
2022/03/10 00:49:02;;;;;;;16.20;5.07;;;11.60;47.20;;;;;;6271952;28;20452;-67
2022/03/10 00:52:03;;;;;;;10.45;5.00;;;11.60;47.20;;;;;;6270593;28;20037;-67
2022/03/10 00:55:04;;;;;;;15.45;5.75;;;11.50;47.20;;;;;;6272521;28;20041;-69
2022/03/10 00:58:05;;;;;;;13.35;5.85;;;11.50;47.30;;;;;;6276662;28;20040;-68
2022/03/10 01:01:06;;;;;;;13.13;5.93;;;11.50;47.30;;;;;;6275000;28;20369;-68
2022/03/10 01:04:06;;;;;;;11.68;6.10;;;11.60;47.30;;;;;;6275955;28;20045;-68
2022/03/10 01:07:07;;;;;;;15.77;6.60;;;11.50;47.30;;;;;;6274836;28;20037;-67
2022/03/10 01:10:09;;;;;;;13.07;5.95;;;11.50;47.40;;;;;;6273518;28;20037;-68
2022/03/10 01:13:18;;;;;;;11.82;5.97;;;11.50;47.40;;;;;;6258572;28;20056;-69
2022/03/10 01:16:18;;;;;;;14.98;5.80;;;11.50;47.50;;;;;;6257365;28;20041;-67
2022/03/10 01:19:19;;;;;;;13.30;5.30;;;11.50;47.60;;;;;;6258332;28;20477;-68
2022/03/10 01:22:20;;;;;;;12.98;5.90;;;11.40;47.70;;;;;;6274540;28;20040;-68
2022/03/10 01:25:22;;;;;;;19.75;7.03;;;11.40;47.90;;;;;;6275402;28;20505;-68
2022/03/10 01:28:25;;;;;;;12.77;6.18;;;11.40;48.00;;;;;;6275673;28;20048;-68
2022/03/10 01:31:25;;;;;;;16.65;6.45;;;11.40;48.00;;;;;;6275595;28;20033;-68
2022/03/10 01:34:27;;;;;;;16.42;6.97;;;11.40;48.10;;;;;;6275428;28;20093;-68
2022/03/10 01:37:29;;;;;;;19.42;7.18;;;11.40;48.10;;;;;;6274239;28;20416;-68
2022/03/10 01:40:29;;;;;;;13.98;6.63;;;11.40;48.20;;;;;;6275169;28;20070;-68
2022/03/10 01:43:30;;;;;;;20.05;7.05;;;11.30;48.30;;;;;;6274321;28;20432;-68
2022/03/10 01:46:32;;;;;;;19.83;8.18;;;11.30;48.40;;;;;;6274681;28;20123;-68
2022/03/10 01:49:34;;;;;;;16.05;7.78;;;11.30;48.60;;;;;;6271019;28;20044;-69
2022/03/10 01:52:35;;;;;;;16.08;7.40;;;11.20;48.70;;;;;;6274287;28;20116;-68
2022/03/10 01:55:36;;;;;;;23.08;8.43;;;11.20;48.80;;;;;;6272660;28;20454;-69
2022/03/10 01:58:38;;;;;;;18.17;7.40;;;11.20;49.10;;;;;;6257280;28;20029;-68
2022/03/10 02:01:39;;;;;;;16.95;6.63;;;11.10;49.30;;;;;;6273897;28;20063;-69
2022/03/10 02:04:40;;;;;;;21.75;8.07;;;11.00;49.50;;;;;;6274673;28;20112;-68
2022/03/10 02:11:02;;;;;;;25.40;7.85;;;10.90;50.00;;;;;;6273594;28;20366;-68
2022/03/10 02:17:19;;;;;;;19.77;7.75;;;10.90;50.30;;;;;;6256874;28;20036;-68
2022/03/10 02:17:23;;;;;;;15.05;7.82;;;10.90;50.40;;;;;;6272586;28;20063;-67
2022/03/10 02:20:24;;;;;;;17.15;7.60;;;10.80;50.60;;;;;;6250963;28;20037;-68
2022/03/10 02:23:26;;;;;;;14.70;7.40;;;10.80;50.70;;;;;;6248602;28;20062;-67
2022/03/10 02:26:26;;;;;;;20.08;7.85;;;10.80;50.60;;;;;;6248015;28;20060;-67
2022/03/10 02:29:27;;;;;;;15.80;7.50;;;10.80;50.60;;;;;;6248178;28;20125;-68
2022/03/10 02:32:28;;;;;;;18.77;7.85;;;10.80;50.60;;;;;;6252351;28;20454;-69
2022/03/10 02:35:29;;;;;;;17.00;7.63;;;10.70;50.80;;;;;;6249493;28;20042;-68
2022/03/10 02:38:31;;;;;;;15.25;6.72;;;10.70;51.00;;;;;;6249152;28;20049;-68
2022/03/10 02:41:32;;;;;;;19.48;8.23;;;10.60;51.00;;;;;;6269256;28;20043;-68
2022/03/10 02:44:38;;;;;;;16.38;7.57;;;10.60;51.10;;;;;;6271615;28;20037;-67
2022/03/10 02:47:39;;;;;;;17.77;8.80;;;10.50;51.20;;;;;;6248576;28;20105;-68
2022/03/10 02:50:40;;;;;;;24.55;8.75;;;10.50;51.20;;;;;;6264668;28;20055;-68
2022/03/10 02:53:41;;;;;;;24.27;9.25;;;10.50;51.40;;;;;;6273604;28;20037;-68
2022/03/10 02:56:42;;;;;;;18.65;8.07;;;10.50;51.60;;;;;;6272032;28;20408;-68
2022/03/10 02:59:43;;;;;;;18.15;8.35;;;10.40;51.70;;;;;;6272563;28;20124;-68
2022/03/10 03:02:46;;;;;;;17.98;8.23;;;10.40;51.70;;;;;;6274502;28;20055;-68
2022/03/10 03:05:47;;;;;;;15.70;7.80;;;10.30;51.80;;;;;;6273267;28;20064;-68
2022/03/10 03:08:48;;;;;;;17.67;7.95;;;10.30;52.00;;;;;;6272241;28;20387;-68
2022/03/10 03:11:49;;;;;;;20.42;7.93;;;10.30;52.10;;;;;;6272448;28;20037;-68
2022/03/10 03:14:50;;;;;;;17.33;8.88;;;10.20;52.20;;;;;;6255601;28;20033;-68
2022/03/10 03:17:50;;;;;;;21.27;8.13;;;10.20;52.30;;;;;;6271688;28;20346;-67
2022/03/10 03:20:51;;;;;;;17.02;7.72;;;10.20;52.30;;;;;;6273275;28;20045;-68
2022/03/10 03:23:52;;;;;;;18.10;8.95;;;10.20;52.30;;;;;;6273149;28;20092;-68
2022/03/10 03:26:53;;;;;;;17.80;9.13;;;10.20;52.20;;;;;;6246911;28;20384;-68
2022/03/10 03:29:54;;;;;;;21.15;7.82;;;10.20;52.10;;;;;;6272209;28;20029;-67
2022/03/10 03:32:55;;;;;;;18.83;9.35;;;10.20;52.10;;;;;;6272599;28;20044;-68
2022/03/10 03:35:56;;;;;;;18.35;7.85;;;10.30;52.00;;;;;;6271649;28;20121;-68
2022/03/10 03:38:57;;;;;;;15.30;6.57;;;10.30;51.90;;;;;;6273215;28;20423;-68
2022/03/10 03:41:58;;;;;;;14.90;6.18;;;10.30;51.70;;;;;;6271046;28;20098;-69
2022/03/10 03:44:59;;;;;;;11.43;5.72;;;10.30;51.30;;;;;;6271416;28;20044;-68
2022/03/10 03:48:00;;;;;;;14.90;5.45;;;10.30;51.10;;;;;;6272998;28;20086;-68
2022/03/10 03:51:01;;;;;;;13.85;5.88;;;10.30;51.00;;;;;;6269432;28;20477;-68
2022/03/10 03:54:02;;;;;;;14.27;5.63;;;10.20;50.70;;;;;;6247070;28;20477;-68
2022/03/10 03:57:03;;;;;;;13.93;6.13;;;10.20;50.60;;;;;;6262763;28;20044;-68
2022/03/10 04:00:06;;;;;;;12.02;6.00;;;10.20;50.60;;;;;;6271246;28;20073;-68
2022/03/10 04:03:10;;;;;;;10.63;5.47;;;10.20;50.50;;;;;;6262785;28;20119;-69
2022/03/10 04:06:11;;;;;;;11.98;5.85;;;10.20;50.40;;;;;;6244692;28;20052;-68
2022/03/10 04:09:12;;;;;;;21.83;5.97;;;10.20;50.50;;;;;;6270618;28;20032;-68
2022/03/10 04:12:13;;;;;;;12.95;5.38;;;10.10;50.40;;;;;;6271230;28;20033;-68
2022/03/10 04:15:14;;;;;;;14.40;6.07;;;10.00;50.40;;;;;;6246797;28;20485;-68
2022/03/10 04:18:16;;;;;;;11.98;5.28;;;10.10;50.50;;;;;;6264623;28;20464;-68
2022/03/10 04:21:17;;;;;;;11.35;5.25;;;10.00;50.60;;;;;;6271214;28;20032;-68
2022/03/10 04:24:18;;;;;;;12.85;5.85;;;10.00;50.60;;;;;;6272249;28;20033;-68
2022/03/10 04:27:19;;;;;;;10.85;6.70;;;10.00;50.70;;;;;;6246190;28;20458;-67
2022/03/10 04:30:22;;;;;;;13.57;5.90;;;9.90;50.70;;;;;;6257061;28;20036;-68
2022/03/10 04:33:23;;;;;;;17.90;7.85;;;9.90;50.80;;;;;;6276884;28;20049;-67
2022/03/10 04:36:24;;;;;;;17.65;8.43;;;9.90;51.20;;;;;;6251583;28;20033;-67
2022/03/10 04:39:25;;;;;;;17.20;8.07;;;9.90;51.60;;;;;;6255222;28;20061;-68
2022/03/10 04:42:27;;;;;;;20.40;7.75;;;9.90;51.70;;;;;;6275716;28;20115;-67
2022/03/10 04:45:28;;;;;;;19.65;8.43;;;9.80;51.70;;;;;;6275239;28;20032;-68
2022/03/10 04:48:30;;;;;;;21.55;9.48;;;9.80;51.90;;;;;;6234435;28;20033;-68
2022/03/10 04:51:31;;;;;;;25.70;8.55;;;9.80;52.10;;;;;;6251185;28;20061;-68
2022/03/10 04:54:32;;;;;;;17.40;7.70;;;9.70;52.40;;;;;;6268381;28;20055;-68
2022/03/10 04:57:34;;;;;;;16.92;7.90;;;9.70;52.70;;;;;;6274147;28;20120;-68
2022/03/10 05:00:35;;;;;;;15.82;7.43;;;9.70;52.60;;;;;;6275689;28;20466;-68
2022/03/10 05:03:35;;;;;;;22.40;8.68;;;9.70;52.60;;;;;;6244695;28;20033;-68
2022/03/10 05:06:36;;;;;;;17.65;8.18;;;9.70;52.70;;;;;;6251506;28;20462;-68
2022/03/10 05:09:37;;;;;;;19.35;8.15;;;9.70;52.90;;;;;;6254226;28;20033;-68
2022/03/10 05:12:53;;;;;;;20.13;8.82;;;9.70;53.00;;;;;;6275153;28;20033;-68
2022/03/10 05:15:55;;;;;;;16.33;7.80;;;9.70;53.10;;;;;;6273679;28;20036;-68
2022/03/10 05:18:56;;;;;;;24.73;8.68;;;9.60;53.20;;;;;;6275182;28;20466;-68
2022/03/10 05:21:56;;;;;;;21.92;8.95;;;9.60;53.30;;;;;;6275120;28;20029;-68
2022/03/10 05:24:57;;;;;;;16.65;8.10;;;9.50;53.40;;;;;;6274490;28;20064;-68
2022/03/10 05:27:58;;;;;;;18.55;9.07;;;9.50;53.60;;;;;;6273830;28;20037;-68
2022/03/10 05:30:59;;;;;;;18.02;9.73;;;9.40;53.70;;;;;;6274716;28;20029;-67
2022/03/10 05:34:00;;;;;;;22.67;9.40;;;9.40;54.00;;;;;;6247263;28;20064;-68
2022/03/10 05:37:01;;;;;;;17.63;8.32;;;9.30;54.10;;;;;;6268764;28;20051;-69
2022/03/10 05:40:04;;;;;;;16.73;8.48;;;9.20;54.30;;;;;;6273813;28;20358;-68
2022/03/10 05:43:05;;;;;;;18.45;8.18;;;9.10;54.50;;;;;;6269671;28;20163;-68
2022/03/10 05:46:07;;;;;;;19.67;7.70;;;9.00;54.60;;;;;;6248426;28;20030;-68
2022/03/10 05:49:08;;;;;;;20.08;7.90;;;9.00;54.80;;;;;;6249715;28;20045;-68
2022/03/10 05:52:09;;;;;;;17.15;7.65;;;9.00;54.70;;;;;;6274443;28;20117;-67
2022/03/10 05:55:09;;;;;;;18.70;8.65;;;9.00;54.80;;;;;;6272467;28;20067;-67
2022/03/10 05:58:10;;;;;;;18.92;8.75;;;9.00;54.90;;;;;;6231477;28;20131;-68
2022/03/10 06:01:13;;;;;;;17.92;7.60;;;9.00;54.90;;;;;;6267840;28;20444;-68
2022/03/10 06:04:15;;;;;;;22.85;9.48;;;9.00;55.00;;;;;;6274860;28;20095;-68
2022/03/10 06:07:16;;;;;;;24.33;8.15;;;8.90;55.10;;;;;;6272295;28;20048;-68
2022/03/10 06:10:17;;;;;;;19.23;8.82;;;8.90;55.10;;;;;;6270683;28;20128;-69
2022/03/10 06:13:18;;;;;;;19.45;8.75;;;8.90;55.30;;;;;;6272502;28;20033;-68
2022/03/10 06:16:19;;;;;;;22.88;8.90;;;8.90;55.40;;;;;;6254702;28;20048;-69
2022/03/10 06:19:20;;;;;;;18.30;8.20;;;8.90;55.40;;;;;;6273577;28;20507;-69
2022/03/10 06:22:24;;;;;;;25.55;8.77;;;8.90;55.50;;;;;;6272258;28;20399;-71
2022/03/10 06:25:25;;;;;;;21.95;8.68;;;8.80;55.40;;;;;;6271979;28;20029;-71
2022/03/10 06:28:25;;;;;;;23.00;8.38;;;8.90;55.50;;;;;;6272256;28;20381;-68
2022/03/10 06:31:27;;;;;;;19.20;8.50;;;8.90;55.60;;;;;;6272113;28;20102;-69
2022/03/10 06:34:28;;;;;;;22.38;9.35;;;8.90;55.60;;;;;;6270254;28;20036;-69
2022/03/10 06:37:29;;;;;;;23.38;8.68;;;8.90;55.60;;;;;;6273028;28;20110;-69
2022/03/10 06:40:30;;;;;;;24.15;10.15;;;8.90;55.60;;;;;;6271402;28;20998;-69
2022/03/10 06:43:32;;;;;;;23.65;9.32;;;8.90;55.70;;;;;;6271413;28;20147;-69
2022/03/10 06:46:33;;;;;;;21.60;10.25;;;8.90;55.60;;;;;;6247996;28;20045;-69
2022/03/10 06:49:33;;;;;;;29.60;9.73;;;9.00;55.70;;;;;;6248155;28;20065;-72
2022/03/10 06:52:34;;;;;;;25.17;10.30;;;9.00;55.60;;;;;;6262246;28;20048;-67
2022/03/10 06:55:35;;;;;;;18.88;9.57;;;9.00;55.40;;;;;;6271914;28;20128;-69
2022/03/10 06:58:36;;;;;;;21.52;9.23;;;9.10;55.30;;;;;;6272404;28;20120;-67
2022/03/10 07:01:37;;;;;;;19.73;8.38;;;9.20;55.30;;;;;;6270690;28;20057;-68
2022/03/10 07:04:38;;;;;;;21.15;10.00;;;9.20;55.20;;;;;;6271687;28;20041;-68
2022/03/10 07:07:39;;;;;;;25.48;10.30;;;9.20;55.20;;;;;;6271791;28;20052;-68
2022/03/10 07:10:40;;;;;;;16.58;7.47;;;9.30;55.10;;;;;;6252797;28;20051;-69
2022/03/10 07:13:41;;;;;;;17.10;8.20;;;9.30;54.80;;;;;;6270512;28;20041;-69
2022/03/10 07:16:43;;;;;;;16.38;8.15;;;9.30;54.50;;;;;;6230191;28;20115;-69
2022/03/10 07:19:45;;;;;;;18.48;8.43;;;9.40;54.30;;;;;;6232285;28;20338;-67
2022/03/10 07:22:46;;;;;;;21.55;8.57;;;9.30;54.20;;;;;;6272205;28;20459;-73
2022/03/10 07:25:47;;;;;;;21.30;8.90;;;9.40;54.10;;;;;;6272951;28;20366;-70
2022/03/10 07:28:49;;;;;;;19.98;9.77;;;9.40;54.00;;;;;;6272939;28;20083;-71
2022/03/10 07:31:50;;;;;;;19.23;9.32;;;9.50;54.00;;;;;;6256447;28;20029;-68
2022/03/10 07:34:51;;;;;;;19.17;9.55;;;9.50;53.90;;;;;;6270218;28;20048;-68
2022/03/10 07:37:53;;;;;;;17.58;8.52;;;9.70;53.80;;;;;;6271667;28;20051;-68
2022/03/10 07:40:57;;;;;;;27.75;10.07;;;9.70;53.60;;;;;;6271020;28;20119;-68
2022/03/10 07:43:59;;;;;;;23.38;9.70;;;9.80;53.50;;;;;;6272590;28;20454;-68
2022/03/10 07:47:00;;;;;;;22.27;10.98;;;9.90;53.30;;;;;;6270990;28;20087;-68
2022/03/10 07:50:02;;;;;;;20.33;9.30;;;10.00;53.20;;;;;;6268908;28;20033;-69
2022/03/10 07:53:04;;;;;;;32.65;10.77;;;10.10;53.10;;;;;;6272239;28;20453;-68
2022/03/10 07:56:05;;;;;;;28.90;9.60;;;10.20;53.00;;;;;;6253883;28;20039;-68
2022/03/10 07:59:05;;;;;;;22.17;11.10;;;10.30;52.90;;;;;;6229829;28;20033;-68
2022/03/10 08:02:07;;;;;;;17.92;8.75;;;10.40;52.90;;;;;;6246767;28;20121;-68
2022/03/10 08:05:08;;;;;;;29.95;11.25;;;10.50;52.80;;;;;;6268992;28;20416;-68
2022/03/10 08:08:09;;;;;;;23.88;10.70;;;10.60;52.50;;;;;;6271902;28;20102;-68
2022/03/10 08:11:10;;;;;;;23.27;10.52;;;10.70;52.40;;;;;;6270329;28;20029;-68
2022/03/10 08:14:11;;;;;;;25.50;10.90;;;10.80;52.30;;;;;;6270019;28;20315;-70
2022/03/10 08:17:12;;;;;;;23.90;9.60;;;11.00;52.10;;;;;;6271493;28;20079;-68
2022/03/10 08:20:13;;;;;;;26.92;11.65;;;11.10;51.80;;;;;;6272319;28;20041;-70
2022/03/10 08:23:16;;;;;;;26.38;11.40;;;11.30;51.40;;;;;;6270852;28;20056;-68
2022/03/10 08:26:17;;;;;;;33.67;12.35;;;11.40;51.10;;;;;;6270406;28;20037;-69
2022/03/10 08:29:18;;;;;;;24.67;10.38;;;11.60;50.70;;;;;;6270457;28;20033;-69
2022/03/10 08:32:21;;;;;;;33.55;10.63;;;11.70;50.60;;;;;;6268119;28;20060;-69
2022/03/10 08:35:22;;;;;;;28.17;11.07;;;11.70;50.40;;;;;;6245987;28;20124;-68
2022/03/10 08:38:25;;;;;;;25.75;10.73;;;11.90;50.20;;;;;;6262061;28;20048;-69
2022/03/10 08:41:26;;;;;;;28.80;11.50;;;11.90;49.60;;;;;;6260644;28;20040;-68
2022/03/10 08:44:27;;;;;;;27.25;10.68;;;12.00;49.50;;;;;;6271459;28;20025;-69
2022/03/10 08:47:29;;;;;;;22.27;10.93;;;12.10;49.30;;;;;;6271619;28;20120;-69
2022/03/10 08:50:30;;;;;;;22.60;10.60;;;12.20;49.10;;;;;;6253413;28;20393;-69
2022/03/10 08:53:32;;;;;;;28.90;12.55;;;12.30;49.00;;;;;;6247376;28;20090;-69
2022/03/10 08:56:34;;;;;;;24.45;11.52;;;12.40;48.80;;;;;;6269639;28;20098;-69
2022/03/10 08:59:35;;;;;;;28.20;11.68;;;12.40;48.30;;;;;;6271213;28;20033;-69
2022/03/10 09:02:35;;;;;;;23.40;11.38;;;12.60;48.00;;;;;;6233001;28;20398;-69
2022/03/10 09:05:37;;;;;;;25.15;11.10;;;12.60;47.50;;;;;;6229081;28;20063;-67
2022/03/10 09:08:38;;;;;;;23.95;10.68;;;12.70;47.40;;;;;;6245576;28;20391;-68
2022/03/10 09:11:39;;;;;;;28.63;10.23;;;12.90;47.30;;;;;;6260944;28;20086;-68
2022/03/10 09:14:40;;;;;;;23.23;9.95;;;13.00;47.00;;;;;;6270806;28;20462;-69
2022/03/10 09:17:41;;;;;;;22.95;11.05;;;13.10;46.70;;;;;;6257155;28;20052;-68
2022/03/10 09:20:42;;;;;;;21.42;10.32;;;13.20;46.40;;;;;;6274424;28;20029;-68
2022/03/10 09:23:42;;;;;;;19.60;10.25;;;13.40;46.10;;;;;;6275103;28;20037;-70
2022/03/10 09:26:43;;;;;;;18.70;9.40;;;13.50;45.80;;;;;;6274237;28;20059;-69
2022/03/10 09:29:44;;;;;;;25.40;9.90;;;13.60;45.30;;;;;;6274339;28;20052;-68
2022/03/10 09:32:45;;;;;;;21.10;8.65;;;13.70;44.80;;;;;;6275843;28;20378;-68
2022/03/10 09:35:47;;;;;;;21.20;9.85;;;13.80;44.60;;;;;;6274070;28;20047;-69
2022/03/10 09:38:48;;;;;;;20.50;8.57;;;13.80;44.30;;;;;;6272895;28;20171;-69
2022/03/10 09:41:49;;;;;;;25.02;9.10;;;13.90;44.20;;;;;;6274086;28;20117;-68
2022/03/10 09:44:52;;;;;;;19.15;9.45;;;14.00;44.00;;;;;;6274967;28;20040;-70
2022/03/10 09:47:53;;;;;;;18.60;8.75;;;14.10;43.80;;;;;;6271051;28;20052;-68
2022/03/10 09:50:55;;;;;;;20.98;8.43;;;14.20;43.60;;;;;;6265679;28;20033;-69
2022/03/10 09:53:55;;;;;;;21.98;10.40;;;14.30;42.90;;;;;;6256914;28;20130;-69
2022/03/10 09:56:56;;;;;;;28.35;8.38;;;14.40;42.70;;;;;;6272741;28;20036;-69
2022/03/10 09:59:58;;;;;;;29.15;8.85;;;14.40;42.20;;;;;;6274423;28;20029;-68
2022/03/10 10:02:59;;;;;;;23.52;8.68;;;14.50;42.30;;;;;;6281129;28;20025;-68
2022/03/10 10:06:01;;;;;;;23.33;8.73;;;14.50;42.30;;;;;;6249818;28;20414;-68
2022/03/10 10:09:05;;;;;;;16.73;8.32;;;14.60;42.10;;;;;;6248715;28;20038;-68
2022/03/10 10:12:07;;;;;;;18.25;9.10;;;14.80;42.00;;;;;;6229840;28;20091;-68
2022/03/10 10:15:09;;;;;;;20.45;8.63;;;14.80;41.70;;;;;;6224520;28;20402;-69
2022/03/10 10:18:15;;;;;;;20.83;9.50;;;14.90;41.30;;;;;;6231976;28;20371;-69
2022/03/10 10:21:20;;;;;;;23.05;9.90;;;14.90;41.30;;;;;;6251071;28;20375;-69
2022/03/10 10:24:21;;;;;;;29.58;10.75;;;15.00;41.40;;;;;;6232752;28;20061;-68
2022/03/10 10:27:28;;;;;;;19.65;9.30;;;15.20;41.10;;;;;;6232340;28;20044;-68
2022/03/10 10:30:31;;;;;;;22.55;9.40;;;15.30;40.70;;;;;;6248746;28;20041;-68
2022/03/10 10:33:34;;;;;;;17.02;9.15;;;15.40;40.30;;;;;;6235333;28;20141;-69
2022/03/10 10:36:37;;;;;;;19.85;8.38;;;15.60;40.00;;;;;;6232552;28;20053;-69
2022/03/10 10:39:51;;;;;;;20.08;8.30;;;15.80;39.70;;;;;;6248444;28;20049;-69
2022/03/10 10:42:52;;;;;;;32.28;11.27;;;16.10;39.10;;;;;;6231568;28;20045;-69
2022/03/10 10:45:55;;;;;;;20.02;7.03;;;16.50;38.50;;;;;;6248252;28;20095;-68
2022/03/10 10:49:00;;;;;;;17.50;8.10;;;17.00;37.60;;;;;;6249416;28;20068;-69
2022/03/10 10:52:01;;;;;;;16.05;7.85;;;17.30;36.60;;;;;;6249138;28;20084;-68
2022/03/10 10:55:07;;;;;;;16.77;7.75;;;17.70;36.20;;;;;;6249004;28;20074;-69
2022/03/10 10:58:10;;;;;;;14.23;6.53;;;17.90;35.50;;;;;;6248105;28;20413;-69
2022/03/10 11:01:35;;;;;;;14.52;7.05;;;18.00;35.30;;;;;;6232258;28;20044;-70
2022/03/10 11:04:38;;;;;;;17.15;7.90;;;18.20;34.90;;;;;;6264519;28;20120;-69
2022/03/10 11:07:40;;;;;;;16.73;6.82;;;18.40;34.60;;;;;;6272091;28;20044;-69
2022/03/10 11:10:41;;;;;;;15.60;7.72;;;18.70;34.30;;;;;;6272808;28;20471;-70
2022/03/10 11:13:42;;;;;;;17.50;7.60;;;18.70;33.90;;;;;;6273476;28;20128;-69
2022/03/10 11:16:45;;;;;;;17.17;7.18;;;18.90;33.90;;;;;;6270735;28;20045;-70
2022/03/10 11:19:47;;;;;;;16.63;7.35;;;19.10;33.50;;;;;;6272485;28;20141;-69
2022/03/10 11:23:25;;;;;;;13.88;7.07;;;19.20;32.80;;;;;;6255890;28;20378;-70
2022/03/10 11:26:51;;;;;;;13.75;6.22;;;19.20;32.40;;;;;;6264862;28;20454;-69
2022/03/10 11:29:55;;;;;;;12.05;5.97;;;19.30;31.70;;;;;;6266378;28;20183;-69
2022/03/10 11:33:00;;;;;;;16.55;7.07;;;19.40;31.90;;;;;;6267050;28;20064;-68
2022/03/10 11:36:28;;;;;;;18.67;7.40;;;19.60;31.70;;;;;;6252063;28;20425;-69
2022/03/10 11:39:29;;;;;;;19.88;7.47;;;19.80;30.90;;;;;;6265888;28;20059;-70
2022/03/10 11:42:31;;;;;;;13.43;6.85;;;20.00;30.70;;;;;;6250140;28;20135;-70
2022/03/10 11:45:32;;;;;;;15.85;7.65;;;20.00;30.50;;;;;;6266974;28;20045;-70
2022/03/10 11:48:34;;;;;;;13.60;6.55;;;20.20;30.40;;;;;;6267479;28;20043;-70
2022/03/10 11:51:52;;;;;;;20.05;6.68;;;20.30;29.90;;;;;;6264485;28;20450;-71
2022/03/10 11:55:20;;;;;;;11.48;5.85;;;20.60;30.00;;;;;;6266971;28;20048;-70
2022/03/10 11:58:34;;;;;;;14.23;5.22;;;21.10;29.70;;;;;;6265906;28;20184;-69
2022/03/10 12:01:42;;;;;;;7.57;4.13;;;21.50;29.60;;;;;;6268404;28;20060;-70
2022/03/10 12:04:43;;;;;;;11.63;4.20;;;21.80;28.80;;;;;;6220805;28;20057;-70
2022/03/10 12:07:51;;;;;;;8.02;3.50;;;22.00;28.60;;;;;;6246532;28;20082;-69
2022/03/10 12:10:53;;;;;;;8.60;4.15;;;22.20;28.20;;;;;;6266866;28;20094;-69
2022/03/10 12:13:54;;;;;;;8.07;4.03;;;22.40;28.00;;;;;;6268024;28;20072;-69
2022/03/10 12:16:55;;;;;;;13.32;4.22;;;22.70;28.00;;;;;;6269075;28;20048;-70
2022/03/10 12:20:21;;;;;;;9.18;4.20;;;23.10;27.60;;;;;;6268214;28;20073;-70
2022/03/10 12:23:27;;;;;;;11.57;4.70;;;23.40;27.50;;;;;;6268590;28;20037;-70
2022/03/10 12:26:33;;;;;;;6.70;3.92;;;23.80;27.10;;;;;;6267728;28;20056;-70
2022/03/10 12:29:35;;;;;;;11.00;3.95;;;24.10;26.90;;;;;;6235187;28;20036;-70
2022/03/10 12:32:41;;;;;;;6.22;3.97;;;24.50;26.60;;;;;;6245539;28;20112;-70
2022/03/10 12:35:42;;;;;;;7.07;3.00;;;24.80;26.80;;;;;;6264293;28;20118;-70
2022/03/10 12:38:45;;;;;;;9.55;3.83;;;25.10;26.00;;;;;;6268964;28;20041;-70
2022/03/10 12:42:01;;;;;;;5.47;3.38;;;25.40;25.60;;;;;;6269743;28;20197;-70
2022/03/10 12:45:02;;;;;;;6.43;3.20;;;25.70;25.20;;;;;;6266817;28;20060;-70
2022/03/10 12:48:10;;;;;;;5.72;3.60;;;26.10;24.80;;;;;;6267160;28;20114;-70
2022/03/10 12:51:24;;;;;;;;;;;26.20;24.50;;;;;;6271824;28;20048;-70
2022/03/10 12:54:26;;;;;;;6.38;2.90;;;26.60;24.40;;;;;;6273164;28;19912;-69
2022/03/10 12:57:28;;;;;;;8.10;3.45;;;26.70;23.80;;;;;;6272698;28;20043;-69
2022/03/10 13:00:29;;;;;;;5.47;2.85;;;26.50;23.70;;;;;;6242469;28;20052;-69
2022/03/10 13:03:49;;;;;;;5.32;3.30;;;26.40;23.80;;;;;;6257852;28;20052;-70
2022/03/10 13:06:58;;;;;;;5.50;3.17;;;26.10;23.70;;;;;;6273230;28;20041;-70
2022/03/10 13:10:00;;;;;;;5.43;3.00;;;25.80;24.00;;;;;;6274703;28;20120;-70
2022/03/10 13:13:01;;;;;;;4.90;3.10;;;25.50;24.30;;;;;;6274509;28;20099;-69
2022/03/10 13:16:04;;;;;;;4.70;2.95;;;24.80;24.70;;;;;;6274353;28;20041;-69
2022/03/10 13:19:06;;;;;;;11.95;3.03;;;24.20;25.30;;;;;;6270083;28;20043;-71
2022/03/10 13:22:07;;;;;;;5.75;3.00;;;23.70;25.90;;;;;;6273310;28;20029;-69
2022/03/10 13:25:08;;;;;;;4.38;2.75;;;23.20;26.30;;;;;;6274285;28;20048;-69
2022/03/10 13:28:14;;;;;;;6.45;3.00;;;22.70;26.80;;;;;;6272451;28;20412;-70
2022/03/10 13:31:15;;;;;;;9.07;3.05;;;22.40;27.30;;;;;;6272237;28;20040;-69
2022/03/10 13:34:17;;;;;;;8.95;3.20;;;22.10;27.60;;;;;;6273388;28;20331;-69
2022/03/10 13:37:18;;;;;;;9.68;2.97;;;21.80;27.80;;;;;;6254009;28;20376;-69
2022/03/10 13:40:19;;;;;;;5.25;2.72;;;21.50;28.00;;;;;;6248796;28;20037;-69
2022/03/10 13:43:31;;;;;;;3.78;2.45;;;21.30;28.30;;;;;;6265317;28;20052;-68
2022/03/10 13:46:32;;;;;;;6.50;2.83;;;21.30;28.50;;;;;;6270660;28;20036;-69
2022/03/10 13:49:44;;;;;;;6.70;2.45;;;21.20;28.70;;;;;;6262951;28;20037;-69
2022/03/10 13:52:46;;;;;;;9.48;3.08;;;21.10;28.90;;;;;;6270554;28;20037;-70
2022/03/10 13:55:49;;;;;;;3.35;2.50;;;21.10;29.00;;;;;;6272473;28;20037;-68
2022/03/10 13:58:50;;;;;;;4.57;2.50;;;21.00;29.20;;;;;;6273191;28;20033;-69
2022/03/10 14:01:51;;;;;;;6.90;2.67;;;20.90;29.30;;;;;;6273300;28;20029;-69
2022/03/10 14:04:53;;;;;;;11.60;2.30;;;20.90;29.40;;;;;;6231566;28;20048;-69
2022/03/10 14:08:11;;;;;;;4.72;2.47;;;20.80;29.40;;;;;;6263742;28;20411;-68
2022/03/10 14:11:12;;;;;;;9.55;2.88;;;20.80;29.50;;;;;;6272079;28;20037;-69
2022/03/10 14:14:14;;;;;;;6.78;2.60;;;20.70;29.60;;;;;;6272426;28;20094;-70
2022/03/10 14:17:16;;;;;;;7.15;2.60;;;20.60;29.70;;;;;;6273426;28;20032;-69
2022/03/10 14:20:17;;;;;;;3.90;2.70;;;20.50;29.90;;;;;;6273243;28;20041;-69
2022/03/10 14:23:24;;;;;;;16.02;2.63;;;20.40;30.00;;;;;;6272412;28;20091;-68
2022/03/10 14:26:34;;;;;;;7.20;3.13;;;20.40;30.20;;;;;;6272159;28;20068;-69
2022/03/10 14:29:40;;;;;;;4.18;2.65;;;20.40;30.50;;;;;;6272876;28;20098;-69
2022/03/10 14:32:41;;;;;;;8.32;2.70;;;20.30;30.60;;;;;;6274518;28;20035;-69
2022/03/10 14:35:42;;;;;;;4.22;2.50;;;20.20;30.80;;;;;;6273711;28;20423;-70
2022/03/10 14:38:43;;;;;;;12.35;3.10;;;20.20;30.90;;;;;;6273156;28;20462;-69
2022/03/10 14:41:44;;;;;;;10.40;3.55;;;20.10;31.10;;;;;;6247283;28;20040;-69
2022/03/10 14:44:45;;;;;;;5.55;2.85;;;20.00;31.40;;;;;;6263000;28;20033;-69
2022/03/10 14:47:46;;;;;;;7.15;3.03;;;20.00;31.60;;;;;;6273556;28;20056;-69
2022/03/10 14:50:47;;;;;;;6.40;2.83;;;20.00;31.70;;;;;;6273771;28;20040;-69
2022/03/10 14:53:48;;;;;;;9.75;3.70;;;20.00;32.00;;;;;;6253711;28;20040;-69
2022/03/10 14:56:49;;;;;;;13.65;3.50;;;19.90;32.30;;;;;;6257262;28;20044;-69
2022/03/10 14:59:50;;;;;;;4.38;2.90;;;19.80;32.70;;;;;;6247635;28;20042;-69
2022/03/10 15:02:51;;;;;;;3.40;2.40;;;19.70;33.70;;;;;;6257614;28;20087;-69
2022/03/10 15:05:52;;;;;;;7.68;2.78;;;19.70;33.40;;;;;;6273044;28;20033;-70
2022/03/10 15:08:53;;;;;;;6.38;2.83;;;19.60;33.50;;;;;;6248241;28;20029;-69
2022/03/10 15:11:54;;;;;;;6.95;3.20;;;19.60;33.60;;;;;;6269729;28;20026;-69
2022/03/10 15:14:55;;;;;;;6.40;3.35;;;19.70;33.80;;;;;;6272317;28;20188;-68
2022/03/10 15:17:56;;;;;;;9.18;3.05;;;19.60;33.80;;;;;;6272560;28;20098;-70
2022/03/10 15:20:57;;;;;;;4.85;3.03;;;19.70;33.90;;;;;;6272173;28;20358;-70
2022/03/10 15:23:58;;;;;;;6.28;2.90;;;19.70;33.90;;;;;;6270788;28;20110;-70
2022/03/10 15:26:59;;;;;;;8.10;2.78;;;19.70;34.00;;;;;;6271506;28;20090;-70
2022/03/10 15:30:01;;;;;;;6.20;2.72;;;19.70;34.10;;;;;;6271065;28;20031;-70
2022/03/10 15:33:03;;;;;;;7.38;2.63;;;19.70;34.00;;;;;;6273408;28;20036;-70
2022/03/10 15:36:04;;;;;;;4.25;2.40;;;19.70;33.90;;;;;;6271371;28;20472;-69
2022/03/10 15:39:05;;;;;;;5.03;2.90;;;19.70;33.90;;;;;;6246373;28;20370;-70
2022/03/10 15:42:06;;;;;;;5.38;2.40;;;19.60;34.00;;;;;;6270299;28;20028;-69
2022/03/10 15:45:09;;;;;;;9.70;3.00;;;19.60;34.10;;;;;;6229779;28;20083;-69